sensor_id;sensor_type;location;lat;lon;timestamp;pressure;altitude;pressure_sealevel;temperature;humidity
51617;BME280;37697;52.588;13.394;2022-08-14T00:01:06;101031.83;;;21.50;63.11
51617;BME280;37697;52.588;13.394;2022-08-14T00:06:07;101033.43;;;21.41;63.26
51617;BME280;37697;52.588;13.394;2022-08-14T00:11:08;101026.06;;;21.33;63.57
51617;BME280;37697;52.588;13.394;2022-08-14T00:16:09;101020.31;;;21.26;63.67
51617;BME280;37697;52.588;13.394;2022-08-14T00:21:11;101028.41;;;21.21;63.87
51617;BME280;37697;52.588;13.394;2022-08-14T00:26:12;101024.67;;;21.13;64.04
51617;BME280;37697;52.588;13.394;2022-08-14T00:31:13;101025.33;;;21.07;64.20
51617;BME280;37697;52.588;13.394;2022-08-14T00:36:14;101025.91;;;20.96;64.33
51617;BME280;37697;52.588;13.394;2022-08-14T00:41:15;101023.63;;;20.92;64.43
51617;BME280;37697;52.588;13.394;2022-08-14T00:46:16;101023.12;;;20.87;64.56
51617;BME280;37697;52.588;13.394;2022-08-14T00:51:16;101018.97;;;20.80;64.70
51617;BME280;37697;52.588;13.394;2022-08-14T00:56:17;101017.86;;;20.75;64.85
51617;BME280;37697;52.588;13.394;2022-08-14T01:01:19;101009.47;;;20.66;64.97
51617;BME280;37697;52.588;13.394;2022-08-14T01:06:20;101001.69;;;20.59;65.03
51617;BME280;37697;52.588;13.394;2022-08-14T01:11:21;100996.89;;;20.50;65.24
51617;BME280;37697;52.588;13.394;2022-08-14T01:16:22;101005.24;;;20.40;65.48
51617;BME280;37697;52.588;13.394;2022-08-14T01:21:33;101003.12;;;20.33;65.63
51617;BME280;37697;52.588;13.394;2022-08-14T01:26:36;101005.15;;;20.26;65.88
51617;BME280;37697;52.588;13.394;2022-08-14T01:31:37;101007.06;;;20.22;66.20
51617;BME280;37697;52.588;13.394;2022-08-14T01:36:51;101002.91;;;20.16;66.29
51617;BME280;37697;52.588;13.394;2022-08-14T01:41:53;101004.94;;;20.10;66.57
51617;BME280;37697;52.588;13.394;2022-08-14T01:47:01;101006.56;;;20.11;66.87
51617;BME280;37697;52.588;13.394;2022-08-14T01:52:04;101007.16;;;20.10;67.04
51617;BME280;37697;52.588;13.394;2022-08-14T01:57:05;100999.78;;;20.12;67.13
51617;BME280;37697;52.588;13.394;2022-08-14T02:02:10;101008.17;;;20.12;67.15
51617;BME280;37697;52.588;13.394;2022-08-14T02:07:14;100998.27;;;20.14;67.33
51617;BME280;37697;52.588;13.394;2022-08-14T02:12:15;100999.30;;;20.16;67.29
51617;BME280;37697;52.588;13.394;2022-08-14T02:17:17;100999.39;;;20.19;67.38
51617;BME280;37697;52.588;13.394;2022-08-14T02:22:19;100992.88;;;20.15;67.55
51617;BME280;37697;52.588;13.394;2022-08-14T02:27:20;100990.59;;;20.11;67.67
51617;BME280;37697;52.588;13.394;2022-08-14T02:32:22;100981.49;;;20.14;67.89
51617;BME280;37697;52.588;13.394;2022-08-14T02:37:22;100989.80;;;20.11;67.86
51617;BME280;37697;52.588;13.394;2022-08-14T02:42:23;100971.98;;;20.09;68.08
51617;BME280;37697;52.588;13.394;2022-08-14T02:47:24;100981.77;;;20.09;68.21
51617;BME280;37697;52.588;13.394;2022-08-14T02:52:27;100963.44;;;20.12;68.23
51617;BME280;37697;52.588;13.394;2022-08-14T02:57:28;100958.69;;;20.12;68.20
51617;BME280;37697;52.588;13.394;2022-08-14T03:02:29;100960.20;;;20.10;68.23
51617;BME280;37697;52.588;13.394;2022-08-14T03:07:31;100950.42;;;20.10;68.28
51617;BME280;37697;52.588;13.394;2022-08-14T03:12:32;100949.09;;;20.03;68.41
51617;BME280;37697;52.588;13.394;2022-08-14T03:17:34;100947.25;;;20.01;68.56
51617;BME280;37697;52.588;13.394;2022-08-14T03:22:34;100949.30;;;20.04;68.62
51617;BME280;37697;52.588;13.394;2022-08-14T03:27:35;100946.02;;;20.08;68.64
51617;BME280;37697;52.588;13.394;2022-08-14T03:32:35;100943.34;;;20.06;68.59
51617;BME280;37697;52.588;13.394;2022-08-14T03:37:36;100945.11;;;20.04;68.67
51617;BME280;37697;52.588;13.394;2022-08-14T03:42:37;100941.75;;;20.05;68.73
51617;BME280;37697;52.588;13.394;2022-08-14T03:47:38;100944.75;;;20.06;68.82
51617;BME280;37697;52.588;13.394;2022-08-14T03:52:40;100938.44;;;20.09;68.83
51617;BME280;37697;52.588;13.394;2022-08-14T03:57:44;100939.23;;;20.10;68.84
51617;BME280;37697;52.588;13.394;2022-08-14T04:02:45;100940.07;;;20.10;68.85
51617;BME280;37697;52.588;13.394;2022-08-14T04:07:47;100936.68;;;20.11;68.98
51617;BME280;37697;52.588;13.394;2022-08-14T04:12:48;100930.65;;;20.08;68.91
51617;BME280;37697;52.588;13.394;2022-08-14T04:17:49;100930.41;;;20.07;69.17
51617;BME280;37697;52.588;13.394;2022-08-14T04:22:49;100932.77;;;20.05;69.21
51617;BME280;37697;52.588;13.394;2022-08-14T04:27:51;100928.21;;;20.07;69.23
51617;BME280;37697;52.588;13.394;2022-08-14T04:32:51;100920.30;;;20.03;69.35
51617;BME280;37697;52.588;13.394;2022-08-14T04:37:52;100930.77;;;20.06;69.45
51617;BME280;37697;52.588;13.394;2022-08-14T04:43:11;100929.33;;;20.12;69.41
51617;BME280;37697;52.588;13.394;2022-08-14T04:48:31;100926.82;;;20.17;69.44
51617;BME280;37697;52.588;13.394;2022-08-14T04:53:33;100928.17;;;20.23;69.38
51617;BME280;37697;52.588;13.394;2022-08-14T04:58:35;100923.47;;;20.27;69.25
51617;BME280;37697;52.588;13.394;2022-08-14T05:03:36;100920.15;;;20.31;69.22
51617;BME280;37697;52.588;13.394;2022-08-14T05:08:38;100913.55;;;20.39;69.11
51617;BME280;37697;52.588;13.394;2022-08-14T05:13:39;100909.58;;;20.50;69.23
51617;BME280;37697;52.588;13.394;2022-08-14T05:18:40;100909.91;;;20.64;69.28
51617;BME280;37697;52.588;13.394;2022-08-14T05:23:41;100905.36;;;20.76;69.50
51617;BME280;37697;52.588;13.394;2022-08-14T05:28:43;100905.03;;;20.91;69.33
51617;BME280;37697;52.588;13.394;2022-08-14T05:33:45;100907.54;;;21.06;69.24
51617;BME280;37697;52.588;13.394;2022-08-14T05:38:47;100907.30;;;21.14;69.30
51617;BME280;37697;52.588;13.394;2022-08-14T05:43:47;100902.53;;;21.28;69.30
51617;BME280;37697;52.588;13.394;2022-08-14T05:48:54;100886.03;;;21.56;68.85
51617;BME280;37697;52.588;13.394;2022-08-14T05:53:56;100882.78;;;21.90;68.44
51617;BME280;37697;52.588;13.394;2022-08-14T05:58:56;100880.56;;;22.30;67.44
51617;BME280;37697;52.588;13.394;2022-08-14T06:03:58;100883.68;;;22.55;66.64
51617;BME280;37697;52.588;13.394;2022-08-14T06:08:58;100885.05;;;22.68;65.89
51617;BME280;37697;52.588;13.394;2022-08-14T06:13:59;100886.95;;;22.78;65.50
51617;BME280;37697;52.588;13.394;2022-08-14T06:19:00;100879.41;;;23.02;65.41
51617;BME280;37697;52.588;13.394;2022-08-14T06:24:00;100875.02;;;23.22;64.80
51617;BME280;37697;52.588;13.394;2022-08-14T06:29:01;100869.58;;;23.43;64.84
51617;BME280;37697;52.588;13.394;2022-08-14T06:34:03;100869.99;;;23.70;64.18
51617;BME280;37697;52.588;13.394;2022-08-14T06:39:04;100861.70;;;23.88;63.43
51617;BME280;37697;52.588;13.394;2022-08-14T06:44:05;100852.39;;;24.04;63.13
51617;BME280;37697;52.588;13.394;2022-08-14T06:49:05;100855.90;;;24.21;62.70
51617;BME280;37697;52.588;13.394;2022-08-14T06:54:06;100854.58;;;24.43;62.32
51617;BME280;37697;52.588;13.394;2022-08-14T06:59:07;100856.67;;;24.57;61.33
51617;BME280;37697;52.588;13.394;2022-08-14T07:04:07;100860.91;;;24.60;61.22
51617;BME280;37697;52.588;13.394;2022-08-14T07:09:27;100859.73;;;24.76;60.72
51617;BME280;37697;52.588;13.394;2022-08-14T07:14:27;100860.18;;;24.85;60.09
51617;BME280;37697;52.588;13.394;2022-08-14T07:19:28;100860.59;;;24.94;59.79
51617;BME280;37697;52.588;13.394;2022-08-14T07:24:29;100845.91;;;25.06;59.55
51617;BME280;37697;52.588;13.394;2022-08-14T07:29:30;100839.09;;;25.21;59.24
51617;BME280;37697;52.588;13.394;2022-08-14T07:34:31;100828.86;;;25.33;58.97
51617;BME280;37697;52.588;13.394;2022-08-14T07:39:31;100832.29;;;25.40;58.83
51617;BME280;37697;52.588;13.394;2022-08-14T07:44:32;100828.67;;;25.43;58.15
51617;BME280;37697;52.588;13.394;2022-08-14T07:49:34;100822.80;;;25.57;57.37
51617;BME280;37697;52.588;13.394;2022-08-14T07:54:35;100823.17;;;25.73;57.09
51617;BME280;37697;52.588;13.394;2022-08-14T07:59:36;100821.95;;;25.85;56.88
51617;BME280;37697;52.588;13.394;2022-08-14T08:04:40;100815.28;;;26.08;56.94
51617;BME280;37697;52.588;13.394;2022-08-14T08:09:49;100809.35;;;26.25;56.01
51617;BME280;37697;52.588;13.394;2022-08-14T08:14:54;100806.84;;;26.42;55.86
51617;BME280;37697;52.588;13.394;2022-08-14T08:19:56;100805.09;;;26.73;55.32
51617;BME280;37697;52.588;13.394;2022-08-14T08:24:57;100805.53;;;26.98;54.98
51617;BME280;37697;52.588;13.394;2022-08-14T08:30:04;100796.70;;;27.18;53.79
51617;BME280;37697;52.588;13.394;2022-08-14T08:35:18;100798.54;;;27.43;53.64
51617;BME280;37697;52.588;13.394;2022-08-14T08:40:28;100792.45;;;27.64;52.86
51617;BME280;37697;52.588;13.394;2022-08-14T08:45:33;100786.97;;;27.87;52.37
51617;BME280;37697;52.588;13.394;2022-08-14T08:50:37;100790.36;;;28.09;51.57
51617;BME280;37697;52.588;13.394;2022-08-14T08:55:41;100771.88;;;28.16;50.74
51617;BME280;37697;52.588;13.394;2022-08-14T09:00:48;100764.58;;;28.34;50.27
51617;BME280;37697;52.588;13.394;2022-08-14T09:05:53;100764.38;;;28.49;49.16
51617;BME280;37697;52.588;13.394;2022-08-14T09:10:57;100766.23;;;28.63;49.05
51617;BME280;37697;52.588;13.394;2022-08-14T09:15:58;100761.92;;;28.78;49.34
51617;BME280;37697;52.588;13.394;2022-08-14T09:21:00;100759.31;;;28.91;48.75
51617;BME280;37697;52.588;13.394;2022-08-14T09:26:01;100744.27;;;29.06;48.33
51617;BME280;37697;52.588;13.394;2022-08-14T09:31:02;100744.25;;;29.21;47.61
51617;BME280;37697;52.588;13.394;2022-08-14T09:36:24;100730.73;;;29.29;47.61
51617;BME280;37697;52.588;13.394;2022-08-14T09:47:01;100733.72;;;29.74;46.28
51617;BME280;37697;52.588;13.394;2022-08-14T09:52:07;100724.23;;;30.04;46.22
51617;BME280;37697;52.588;13.394;2022-08-14T09:57:11;100727.22;;;29.97;44.65
51617;BME280;37697;52.588;13.394;2022-08-14T10:02:30;100716.09;;;29.74;44.90
51617;BME280;37697;52.588;13.394;2022-08-14T10:07:48;100706.20;;;29.82;45.22
51617;BME280;37697;52.588;13.394;2022-08-14T10:12:51;100697.89;;;29.83;44.78
51617;BME280;37697;52.588;13.394;2022-08-14T10:18:04;100698.76;;;30.00;44.34
51617;BME280;37697;52.588;13.394;2022-08-14T10:23:14;100691.91;;;29.98;43.70
51617;BME280;37697;52.588;13.394;2022-08-14T10:28:18;100676.53;;;30.23;43.64
51617;BME280;37697;52.588;13.394;2022-08-14T10:33:31;100673.85;;;30.69;43.44
51617;BME280;37697;52.588;13.394;2022-08-14T10:38:33;100658.83;;;30.85;42.63
51617;BME280;37697;52.588;13.394;2022-08-14T10:43:36;100658.73;;;30.97;41.35
51617;BME280;37697;52.588;13.394;2022-08-14T10:48:37;100652.95;;;31.00;40.87
51617;BME280;37697;52.588;13.394;2022-08-14T10:53:38;100636.57;;;31.13;39.90
51617;BME280;37697;52.588;13.394;2022-08-14T10:58:39;100632.23;;;31.37;39.71
51617;BME280;37697;52.588;13.394;2022-08-14T11:03:42;100620.19;;;31.46;40.13
51617;BME280;37697;52.588;13.394;2022-08-14T11:08:43;100618.14;;;31.55;39.14
51617;BME280;37697;52.588;13.394;2022-08-14T11:13:44;100620.61;;;31.61;38.81
51617;BME280;37697;52.588;13.394;2022-08-14T11:18:47;100619.66;;;31.85;38.39
51617;BME280;37697;52.588;13.394;2022-08-14T11:23:51;100618.38;;;31.94;36.88
51617;BME280;37697;52.588;13.394;2022-08-14T11:28:54;100615.12;;;32.01;37.23
51617;BME280;37697;52.588;13.394;2022-08-14T11:33:56;100608.98;;;32.02;36.86
51617;BME280;37697;52.588;13.394;2022-08-14T11:38:58;100604.19;;;31.99;37.16
51617;BME280;37697;52.588;13.394;2022-08-14T11:43:59;100599.64;;;32.02;36.60
51617;BME280;37697;52.588;13.394;2022-08-14T11:49:00;100603.21;;;31.98;36.69
51617;BME280;37697;52.588;13.394;2022-08-14T11:54:04;100598.83;;;32.01;36.34
51617;BME280;37697;52.588;13.394;2022-08-14T11:59:07;100587.15;;;32.12;36.59
51617;BME280;37697;52.588;13.394;2022-08-14T12:04:13;100583.28;;;32.36;35.67
51617;BME280;37697;52.588;13.394;2022-08-14T12:09:33;100586.94;;;32.54;35.45
51617;BME280;37697;52.588;13.394;2022-08-14T12:14:35;100587.13;;;32.55;33.82
51617;BME280;37697;52.588;13.394;2022-08-14T12:19:45;100584.39;;;32.52;34.35
51617;BME280;37697;52.588;13.394;2022-08-14T12:24:49;100575.77;;;32.73;34.64
51617;BME280;37697;52.588;13.394;2022-08-14T12:29:53;100568.30;;;32.88;35.02
51617;BME280;37697;52.588;13.394;2022-08-14T12:34:55;100559.94;;;32.94;33.82
51617;BME280;37697;52.588;13.394;2022-08-14T12:40:10;100553.01;;;32.99;34.03
51617;BME280;37697;52.588;13.394;2022-08-14T12:45:14;100542.48;;;33.09;34.00
51617;BME280;37697;52.588;13.394;2022-08-14T12:50:15;100531.61;;;33.17;33.56
51617;BME280;37697;52.588;13.394;2022-08-14T12:55:16;100514.95;;;33.37;33.44
51617;BME280;37697;52.588;13.394;2022-08-14T13:00:22;100493.37;;;33.36;31.93
51617;BME280;37697;52.588;13.394;2022-08-14T13:05:28;100509.77;;;33.23;33.58
51617;BME280;37697;52.588;13.394;2022-08-14T13:10:32;100507.41;;;33.26;32.76
51617;BME280;37697;52.588;13.394;2022-08-14T13:15:34;100493.03;;;33.12;33.24
51617;BME280;37697;52.588;13.394;2022-08-14T13:20:36;100488.53;;;33.02;33.22
51617;BME280;37697;52.588;13.394;2022-08-14T13:25:37;100481.05;;;32.56;33.09
51617;BME280;37697;52.588;13.394;2022-08-14T13:30:41;100471.51;;;32.15;32.83
51617;BME280;37697;52.588;13.394;2022-08-14T13:35:44;100457.52;;;32.07;32.92
51617;BME280;37697;52.588;13.394;2022-08-14T13:40:48;100449.81;;;32.47;33.15
51617;BME280;37697;52.588;13.394;2022-08-14T13:45:52;100435.91;;;32.72;32.71
51617;BME280;37697;52.588;13.394;2022-08-14T13:50:56;100426.85;;;32.91;32.60
51617;BME280;37697;52.588;13.394;2022-08-14T13:55:59;100416.13;;;32.99;31.77
51617;BME280;37697;52.588;13.394;2022-08-14T14:01:00;100420.97;;;32.90;31.67
51617;BME280;37697;52.588;13.394;2022-08-14T14:06:02;100415.59;;;32.87;31.74
51617;BME280;37697;52.588;13.394;2022-08-14T14:11:03;100409.06;;;32.82;30.83
51617;BME280;37697;52.588;13.394;2022-08-14T14:16:07;100389.06;;;32.73;31.35
51617;BME280;37697;52.588;13.394;2022-08-14T14:21:09;100374.02;;;32.72;31.38
51617;BME280;37697;52.588;13.394;2022-08-14T14:26:14;100379.72;;;32.72;31.41
51617;BME280;37697;52.588;13.394;2022-08-14T14:31:25;100367.97;;;32.70;31.21
51617;BME280;37697;52.588;13.394;2022-08-14T14:36:29;100357.08;;;32.51;30.67
51617;BME280;37697;52.588;13.394;2022-08-14T14:41:39;100351.02;;;32.49;30.94
51617;BME280;37697;52.588;13.394;2022-08-14T14:46:44;100356.06;;;32.40;30.34
51617;BME280;37697;52.588;13.394;2022-08-14T14:51:49;100354.27;;;32.34;29.69
51617;BME280;37697;52.588;13.394;2022-08-14T14:56:50;100353.58;;;32.29;29.90
51617;BME280;37697;52.588;13.394;2022-08-14T15:01:57;100345.89;;;32.17;30.27
51617;BME280;37697;52.588;13.394;2022-08-14T15:06:58;100345.11;;;32.17;30.37
51617;BME280;37697;52.588;13.394;2022-08-14T15:11:59;100344.34;;;32.21;29.28
51617;BME280;37697;52.588;13.394;2022-08-14T15:17:02;100334.17;;;32.15;29.86
51617;BME280;37697;52.588;13.394;2022-08-14T15:22:05;100333.21;;;32.13;29.76
51617;BME280;37697;52.588;13.394;2022-08-14T15:27:06;100338.49;;;32.20;29.52
51617;BME280;37697;52.588;13.394;2022-08-14T15:32:08;100334.63;;;32.13;29.73
51617;BME280;37697;52.588;13.394;2022-08-14T15:37:10;100332.97;;;32.03;29.91
51617;BME280;37697;52.588;13.394;2022-08-14T15:42:12;100324.70;;;32.01;29.89
51617;BME280;37697;52.588;13.394;2022-08-14T15:47:13;100325.02;;;31.98;29.83
51617;BME280;37697;52.588;13.394;2022-08-14T15:52:14;100319.27;;;31.93;29.97
51617;BME280;37697;52.588;13.394;2022-08-14T15:57:15;100312.59;;;31.87;29.80
51617;BME280;37697;52.588;13.394;2022-08-14T16:02:17;100311.91;;;31.83;30.04
51617;BME280;37697;52.588;13.394;2022-08-14T16:07:19;100313.78;;;31.82;29.89
51617;BME280;37697;52.588;13.394;2022-08-14T16:12:22;100306.52;;;31.81;29.86
51617;BME280;37697;52.588;13.394;2022-08-14T16:17:23;100298.56;;;31.75;30.44
51617;BME280;37697;52.588;13.394;2022-08-14T16:22:25;100299.02;;;31.56;29.87
51617;BME280;37697;52.588;13.394;2022-08-14T16:27:26;100288.95;;;31.47;30.19
51617;BME280;37697;52.588;13.394;2022-08-14T16:32:28;100290.56;;;31.35;29.37
51617;BME280;37697;52.588;13.394;2022-08-14T16:37:29;100275.80;;;31.28;29.56
51617;BME280;37697;52.588;13.394;2022-08-14T16:42:31;100269.53;;;31.20;29.24
51617;BME280;37697;52.588;13.394;2022-08-14T16:47:32;100260.46;;;31.12;29.55
51617;BME280;37697;52.588;13.394;2022-08-14T16:52:33;100260.40;;;31.08;29.68
51617;BME280;37697;52.588;13.394;2022-08-14T16:57:45;100264.23;;;30.96;29.86
51617;BME280;37697;52.588;13.394;2022-08-14T17:02:58;100253.94;;;30.81;30.18
51617;BME280;37697;52.588;13.394;2022-08-14T17:08:09;100253.91;;;30.69;30.38
51617;BME280;37697;52.588;13.394;2022-08-14T17:13:20;100250.74;;;30.54;30.55
51617;BME280;37697;52.588;13.394;2022-08-14T17:18:42;100243.08;;;30.46;30.52
51617;BME280;37697;52.588;13.394;2022-08-14T17:23:45;100243.27;;;30.39;30.68
51617;BME280;37697;52.588;13.394;2022-08-14T17:29:02;100235.57;;;30.31;31.14
51617;BME280;37697;52.588;13.394;2022-08-14T17:33:52;100232.27;;;30.20;31.42
51617;BME280;37697;52.588;13.394;2022-08-14T17:39:11;100228.15;;;30.08;31.51
51617;BME280;37697;52.588;13.394;2022-08-14T17:44:28;100232.98;;;29.95;32.09
51617;BME280;37697;52.588;13.394;2022-08-14T17:49:48;100232.31;;;29.82;32.35
51617;BME280;37697;52.588;13.394;2022-08-14T17:54:49;100234.83;;;29.72;32.53
51617;BME280;37697;52.588;13.394;2022-08-14T17:59:54;100238.75;;;29.62;32.93
51617;BME280;37697;52.588;13.394;2022-08-14T18:04:57;100234.45;;;29.49;33.34
51617;BME280;37697;52.588;13.394;2022-08-14T18:10:04;100244.63;;;29.38;33.55
51617;BME280;37697;52.588;13.394;2022-08-14T18:15:13;100245.73;;;29.28;34.19
51617;BME280;37697;52.588;13.394;2022-08-14T18:20:15;100249.88;;;29.07;34.73
51617;BME280;37697;52.588;13.394;2022-08-14T18:25:17;100258.63;;;28.88;35.16
51617;BME280;37697;52.588;13.394;2022-08-14T18:30:21;100262.41;;;28.65;35.59
51617;BME280;37697;52.588;13.394;2022-08-14T18:35:43;100267.30;;;28.52;36.25
51617;BME280;37697;52.588;13.394;2022-08-14T18:40:45;100271.79;;;28.42;36.92
51617;BME280;37697;52.588;13.394;2022-08-14T18:45:59;100278.47;;;28.31;37.51
51617;BME280;37697;52.588;13.394;2022-08-14T18:51:05;100276.23;;;28.23;37.84
51617;BME280;37697;52.588;13.394;2022-08-14T18:56:08;100272.13;;;28.15;38.15
51617;BME280;37697;52.588;13.394;2022-08-14T19:01:20;100274.25;;;28.11;38.36
51617;BME280;37697;52.588;13.394;2022-08-14T19:06:37;100278.18;;;28.06;38.70
51617;BME280;37697;52.588;13.394;2022-08-14T19:16:45;100290.97;;;27.94;39.35
51617;BME280;37697;52.588;13.394;2022-08-14T19:21:54;100287.58;;;27.91;39.48
51617;BME280;37697;52.588;13.394;2022-08-14T19:27:16;100290.41;;;27.91;39.70
51617;BME280;37697;52.588;13.394;2022-08-14T19:42:50;100300.27;;;27.71;40.01
51617;BME280;37697;52.588;13.394;2022-08-14T19:47:52;100302.33;;;27.67;40.19
51617;BME280;37697;52.588;13.394;2022-08-14T19:53:04;100297.00;;;27.60;40.37
51617;BME280;37697;52.588;13.394;2022-08-14T19:58:08;100300.19;;;27.51;40.73
51617;BME280;37697;52.588;13.394;2022-08-14T20:03:09;100277.08;;;27.44;41.10
51617;BME280;37697;52.588;13.394;2022-08-14T20:08:11;100271.61;;;27.33;41.38
51617;BME280;37697;52.588;13.394;2022-08-14T20:13:12;100274.77;;;27.27;41.70
51617;BME280;37697;52.588;13.394;2022-08-14T20:18:13;100280.73;;;27.17;41.95
51617;BME280;37697;52.588;13.394;2022-08-14T20:23:16;100284.53;;;27.07;42.14
51617;BME280;37697;52.588;13.394;2022-08-14T20:28:19;100275.91;;;26.91;42.61
51617;BME280;37697;52.588;13.394;2022-08-14T20:33:24;100275.88;;;26.79;42.83
51617;BME280;37697;52.588;13.394;2022-08-14T20:38:26;100282.92;;;26.67;43.30
51617;BME280;37697;52.588;13.394;2022-08-14T20:43:31;100285.00;;;26.59;43.63
51617;BME280;37697;52.588;13.394;2022-08-14T20:49:01;100277.97;;;26.44;43.92
51617;BME280;37697;52.588;13.394;2022-08-14T20:54:06;100278.48;;;26.35;44.42
51617;BME280;37697;52.588;13.394;2022-08-14T20:59:13;100283.19;;;26.30;44.67
51617;BME280;37697;52.588;13.394;2022-08-14T21:14:48;100287.81;;;26.13;45.50
51617;BME280;37697;52.588;13.394;2022-08-14T21:19:49;100291.96;;;26.05;45.92
51617;BME280;37697;52.588;13.394;2022-08-14T21:24:50;100291.47;;;25.95;46.24
51617;BME280;37697;52.588;13.394;2022-08-14T21:29:50;100280.23;;;25.87;46.45
51617;BME280;37697;52.588;13.394;2022-08-14T21:34:53;100282.10;;;25.82;46.84
51617;BME280;37697;52.588;13.394;2022-08-14T21:39:54;100273.31;;;25.73;47.20
51617;BME280;37697;52.588;13.394;2022-08-14T21:44:57;100275.04;;;25.63;47.32
51617;BME280;37697;52.588;13.394;2022-08-14T21:49:58;100271.30;;;25.54;47.65
51617;BME280;37697;52.588;13.394;2022-08-14T21:55:00;100267.79;;;25.43;47.87
51617;BME280;37697;52.588;13.394;2022-08-14T22:00:03;100258.55;;;25.39;47.95
51617;BME280;37697;52.588;13.394;2022-08-14T22:05:08;100238.96;;;25.25;48.34
51617;BME280;37697;52.588;13.394;2022-08-14T22:10:16;100250.81;;;25.24;48.28
51617;BME280;37697;52.588;13.394;2022-08-14T22:15:18;100257.30;;;25.17;48.50
51617;BME280;37697;52.588;13.394;2022-08-14T22:20:20;100254.93;;;25.12;48.65
51617;BME280;37697;52.588;13.394;2022-08-14T22:25:23;100241.11;;;25.06;48.86
51617;BME280;37697;52.588;13.394;2022-08-14T22:30:24;100243.78;;;24.98;49.03
51617;BME280;37697;52.588;13.394;2022-08-14T22:35:26;100246.06;;;24.88;49.32
51617;BME280;37697;52.588;13.394;2022-08-14T22:40:28;100241.92;;;24.77;49.65
51617;BME280;37697;52.588;13.394;2022-08-14T22:45:28;100240.82;;;24.64;49.95
51617;BME280;37697;52.588;13.394;2022-08-14T22:50:29;100239.66;;;24.54;50.10
51617;BME280;37697;52.588;13.394;2022-08-14T22:55:31;100233.86;;;24.42;50.27
51617;BME280;37697;52.588;13.394;2022-08-14T23:00:32;100234.11;;;24.36;50.57
51617;BME280;37697;52.588;13.394;2022-08-14T23:05:34;100240.97;;;24.28;50.74
51617;BME280;37697;52.588;13.394;2022-08-14T23:10:35;100235.00;;;24.18;50.98
51617;BME280;37697;52.588;13.394;2022-08-14T23:15:36;100228.41;;;24.10;51.21
51617;BME280;37697;52.588;13.394;2022-08-14T23:20:37;100231.04;;;24.01;51.55
51617;BME280;37697;52.588;13.394;2022-08-14T23:25:40;100230.48;;;23.88;51.79
51617;BME280;37697;52.588;13.394;2022-08-14T23:30:44;100225.89;;;23.71;52.35
51617;BME280;37697;52.588;13.394;2022-08-14T23:35:46;100225.89;;;23.71;52.35
51617;BME280;37697;52.588;13.394;2022-08-14T23:40:47;100227.11;;;23.63;52.62
51617;BME280;37697;52.588;13.394;2022-08-14T23:45:48;100217.50;;;23.57;52.88
51617;BME280;37697;52.588;13.394;2022-08-14T23:50:49;100214.70;;;23.50;53.16
51617;BME280;37697;52.588;13.394;2022-08-14T23:55:53;100208.89;;;23.41;53.50
